sensor_id;sensor_type;location;lat;lon;timestamp;pressure;altitude;pressure_sealevel;temperature;humidity
62011;BME280;47967;51.756;10.174;2023-04-27T04:02:19;100167.31;;;1.32;81.55
62011;BME280;47967;51.756;10.174;2023-04-27T04:06:22;100176.38;;;1.30;81.72
62011;BME280;47967;51.756;10.174;2023-04-27T04:10:25;100175.88;;;1.36;82.18
62011;BME280;47967;51.756;10.174;2023-04-27T04:14:28;100170.72;;;1.44;81.91
62011;BME280;47967;51.756;10.174;2023-04-27T04:18:32;100170.06;;;1.52;81.51
62011;BME280;47967;51.756;10.174;2023-04-27T04:22:35;100178.31;;;1.49;81.45
62011;BME280;47967;51.756;10.174;2023-04-27T04:26:38;100181.44;;;1.54;81.17
62011;BME280;47967;51.756;10.174;2023-04-27T04:30:40;100185.88;;;1.53;81.44
62011;BME280;47967;51.756;10.174;2023-04-27T04:34:47;100179.69;;;1.43;82.08
62011;BME280;47967;51.756;10.174;2023-04-27T04:38:51;100179.09;;;1.39;82.45
62011;BME280;47967;51.756;10.174;2023-04-27T04:42:54;100182.78;;;1.48;82.42
62011;BME280;47967;51.756;10.174;2023-04-27T04:46:57;100179.41;;;1.46;82.14
62011;BME280;47967;51.756;10.174;2023-04-27T04:51:03;100183.03;;;1.45;82.12
62011;BME280;47967;51.756;10.174;2023-04-27T04:55:07;100179.78;;;1.41;82.06
62011;BME280;47967;51.756;10.174;2023-04-27T04:59:10;100179.94;;;1.40;82.11
62011;BME280;47967;51.756;10.174;2023-04-27T05:03:13;100187.53;;;1.44;81.93
62011;BME280;47967;51.756;10.174;2023-04-27T05:07:17;100201.72;;;1.55;82.18
62011;BME280;47967;51.756;10.174;2023-04-27T05:11:25;100193.44;;;1.48;82.16
62011;BME280;47967;51.756;10.174;2023-04-27T05:15:27;100211.81;;;1.61;82.25
62011;BME280;47967;51.756;10.174;2023-04-27T05:19:30;100204.22;;;1.78;81.85
62011;BME280;47967;51.756;10.174;2023-04-27T05:23:34;100210.59;;;1.96;81.62
62011;BME280;47967;51.756;10.174;2023-04-27T05:27:37;100219.75;;;2.03;81.45
62011;BME280;47967;51.756;10.174;2023-04-27T05:31:41;100226.47;;;2.07;80.65
62011;BME280;47967;51.756;10.174;2023-04-27T05:35:44;100231.44;;;2.22;80.56
62011;BME280;47967;51.756;10.174;2023-04-27T05:39:48;100227.59;;;2.36;80.72
62011;BME280;47967;51.756;10.174;2023-04-27T05:43:50;100240.91;;;2.46;80.15
62011;BME280;47967;51.756;10.174;2023-04-27T05:47:53;100241.53;;;2.59;80.88
62011;BME280;47967;51.756;10.174;2023-04-27T05:51:56;100235.09;;;2.81;80.68
62011;BME280;47967;51.756;10.174;2023-04-27T05:56:01;100236.97;;;3.00;79.71
62011;BME280;47967;51.756;10.174;2023-04-27T06:00:06;100240.88;;;3.16;78.93
62011;BME280;47967;51.756;10.174;2023-04-27T06:04:14;100244.25;;;3.28;78.22
62011;BME280;47967;51.756;10.174;2023-04-27T06:08:17;100239.06;;;3.26;77.67
62011;BME280;47967;51.756;10.174;2023-04-27T06:12:21;100241.31;;;3.41;76.92
62011;BME280;47967;51.756;10.174;2023-04-27T06:16:23;100246.88;;;3.57;76.70
62011;BME280;47967;51.756;10.174;2023-04-27T06:20:26;100246.59;;;3.70;75.84
62011;BME280;47967;51.756;10.174;2023-04-27T06:24:29;100255.94;;;3.94;76.01
62011;BME280;47967;51.756;10.174;2023-04-27T06:28:33;100253.19;;;4.13;75.06
62011;BME280;47967;51.756;10.174;2023-04-27T06:32:35;100249.31;;;4.36;74.75
62011;BME280;47967;51.756;10.174;2023-04-27T06:36:59;100249.88;;;4.67;73.88
62011;BME280;47967;51.756;10.174;2023-04-27T06:41:02;100255.78;;;4.89;72.37
62011;BME280;47967;51.756;10.174;2023-04-27T06:45:07;100266.44;;;5.17;72.50
62011;BME280;47967;51.756;10.174;2023-04-27T06:49:09;100258.63;;;5.41;72.25
62011;BME280;47967;51.756;10.174;2023-04-27T06:53:12;100263.59;;;5.81;71.11
62011;BME280;47967;51.756;10.174;2023-04-27T06:57:15;100260.78;;;6.08;71.11
62011;BME280;47967;51.756;10.174;2023-04-27T07:01:18;100259.50;;;6.47;69.76
62011;BME280;47967;51.756;10.174;2023-04-27T07:05:21;100255.13;;;6.97;68.79
62011;BME280;47967;51.756;10.174;2023-04-27T07:09:24;100249.63;;;7.32;67.68
62011;BME280;47967;51.756;10.174;2023-04-27T07:13:28;100254.66;;;7.60;66.80
62011;BME280;47967;51.756;10.174;2023-04-27T07:17:32;100254.50;;;7.86;64.92
62011;BME280;47967;51.756;10.174;2023-04-27T07:21:35;100255.41;;;8.18;64.89
62011;BME280;47967;51.756;10.174;2023-04-27T07:25:38;100251.03;;;8.25;64.39
62011;BME280;47967;51.756;10.174;2023-04-27T07:29:40;100244.66;;;8.18;63.27
62011;BME280;47967;51.756;10.174;2023-04-27T07:33:45;100248.38;;;8.00;62.43
62011;BME280;47967;51.756;10.174;2023-04-27T07:37:48;100253.31;;;7.72;61.85
62011;BME280;47967;51.756;10.174;2023-04-27T07:41:52;100241.56;;;7.81;61.67
62011;BME280;47967;51.756;10.174;2023-04-27T07:45:55;100254.94;;;8.06;61.68
62011;BME280;47967;51.756;10.174;2023-04-27T07:50:00;100248.44;;;7.84;60.37
62011;BME280;47967;51.756;10.174;2023-04-27T07:54:02;100266.38;;;8.08;59.21
62011;BME280;47967;51.756;10.174;2023-04-27T07:58:05;100266.97;;;8.27;57.25
62011;BME280;47967;51.756;10.174;2023-04-27T08:02:08;100257.53;;;8.39;58.27
62011;BME280;47967;51.756;10.174;2023-04-27T08:06:21;100261.72;;;8.33;54.39
62011;BME280;47967;51.756;10.174;2023-04-27T08:10:25;100254.16;;;8.37;54.27
62011;BME280;47967;51.756;10.174;2023-04-27T08:14:27;100253.66;;;8.50;53.71
62011;BME280;47967;51.756;10.174;2023-04-27T08:18:30;100255.09;;;8.69;51.84
62011;BME280;47967;51.756;10.174;2023-04-27T08:22:34;100254.75;;;8.64;51.58
62011;BME280;47967;51.756;10.174;2023-04-27T08:26:37;100260.03;;;8.49;52.23
62011;BME280;47967;51.756;10.174;2023-04-27T08:30:40;100251.44;;;8.62;50.42
62011;BME280;47967;51.756;10.174;2023-04-27T08:34:43;100245.53;;;8.90;50.88
62011;BME280;47967;51.756;10.174;2023-04-27T08:38:48;100239.84;;;9.16;49.83
62011;BME280;47967;51.756;10.174;2023-04-27T08:42:55;100241.47;;;9.25;46.09
62011;BME280;47967;51.756;10.174;2023-04-27T08:46:58;100235.19;;;9.48;47.16
62011;BME280;47967;51.756;10.174;2023-04-27T08:51:00;100232.13;;;9.36;49.95
62011;BME280;47967;51.756;10.174;2023-04-27T08:55:06;100222.34;;;9.73;51.40
62011;BME280;47967;51.756;10.174;2023-04-27T08:59:13;100241.44;;;10.02;48.27
62011;BME280;47967;51.756;10.174;2023-04-27T09:03:23;100228.03;;;9.93;45.68
62011;BME280;47967;51.756;10.174;2023-04-27T09:07:27;100244.16;;;9.64;44.06
62011;BME280;47967;51.756;10.174;2023-04-27T09:11:32;100234.94;;;9.58;44.53
62011;BME280;47967;51.756;10.174;2023-04-27T09:15:40;100234.28;;;10.24;45.28
62011;BME280;47967;51.756;10.174;2023-04-27T09:19:43;100229.19;;;10.29;43.52
62011;BME280;47967;51.756;10.174;2023-04-27T09:23:46;100224.03;;;10.64;43.53
62011;BME280;47967;51.756;10.174;2023-04-27T09:27:50;100221.53;;;10.63;44.94
62011;BME280;47967;51.756;10.174;2023-04-27T09:31:52;100224.75;;;10.36;44.33
62011;BME280;47967;51.756;10.174;2023-04-27T09:35:57;100226.53;;;10.81;45.02
62011;BME280;47967;51.756;10.174;2023-04-27T09:40:01;100232.56;;;10.46;44.25
62011;BME280;47967;51.756;10.174;2023-04-27T09:44:06;100232.31;;;10.99;43.26
62011;BME280;47967;51.756;10.174;2023-04-27T09:48:09;100211.34;;;11.45;42.67
62011;BME280;47967;51.756;10.174;2023-04-27T09:52:12;100209.50;;;11.74;42.25
62011;BME280;47967;51.756;10.174;2023-04-27T09:56:26;100215.59;;;11.54;42.93
62011;BME280;47967;51.756;10.174;2023-04-27T10:00:41;100214.34;;;11.28;42.01
62011;BME280;47967;51.756;10.174;2023-04-27T10:05:09;100218.72;;;11.08;41.14
62011;BME280;47967;51.756;10.174;2023-04-27T10:09:19;100208.31;;;11.54;41.37
62011;BME280;47967;51.756;10.174;2023-04-27T10:13:24;100215.22;;;11.85;39.73
62011;BME280;47967;51.756;10.174;2023-04-27T10:17:30;100210.81;;;12.48;37.72
62011;BME280;47967;51.756;10.174;2023-04-27T10:21:33;100210.63;;;12.56;36.91
62011;BME280;47967;51.756;10.174;2023-04-27T10:25:37;100222.22;;;12.43;37.57
62011;BME280;47967;51.756;10.174;2023-04-27T10:29:41;100212.06;;;12.52;37.14
62011;BME280;47967;51.756;10.174;2023-04-27T10:33:46;100209.97;;;12.47;38.02
62011;BME280;47967;51.756;10.174;2023-04-27T10:37:48;100205.00;;;12.58;39.21
62011;BME280;47967;51.756;10.174;2023-04-27T10:41:53;100196.38;;;12.89;38.62
62011;BME280;47967;51.756;10.174;2023-04-27T10:46:06;100212.63;;;12.34;39.35
62011;BME280;47967;51.756;10.174;2023-04-27T10:50:12;100195.28;;;12.77;41.27
62011;BME280;47967;51.756;10.174;2023-04-27T10:54:16;100195.97;;;13.06;40.12
62011;BME280;47967;51.756;10.174;2023-04-27T10:58:21;100196.97;;;12.91;37.73
62011;BME280;47967;51.756;10.174;2023-04-27T11:02:27;100182.88;;;13.16;36.60
62011;BME280;47967;51.756;10.174;2023-04-27T11:06:40;100183.72;;;13.37;36.69
62011;BME280;47967;51.756;10.174;2023-04-27T11:10:44;100184.38;;;13.45;38.84
62011;BME280;47967;51.756;10.174;2023-04-27T11:14:49;100180.59;;;13.73;38.15
62011;BME280;47967;51.756;10.174;2023-04-27T11:18:53;100176.00;;;13.81;37.01
62011;BME280;47967;51.756;10.174;2023-04-27T11:22:57;100171.78;;;13.98;37.59
62011;BME280;47967;51.756;10.174;2023-04-27T11:27:00;100185.34;;;14.05;37.68
62011;BME280;47967;51.756;10.174;2023-04-27T11:31:02;100177.31;;;14.30;37.16
62011;BME280;47967;51.756;10.174;2023-04-27T11:35:06;100173.09;;;14.86;34.40
62011;BME280;47967;51.756;10.174;2023-04-27T11:39:16;100172.66;;;14.89;35.42
62011;BME280;47967;51.756;10.174;2023-04-27T11:43:24;100166.16;;;13.86;37.66
62011;BME280;47967;51.756;10.174;2023-04-27T11:47:28;100185.53;;;12.96;37.06
62011;BME280;47967;51.756;10.174;2023-04-27T11:51:33;100176.13;;;12.85;37.13
62011;BME280;47967;51.756;10.174;2023-04-27T11:55:37;100188.75;;;12.09;38.30
62011;BME280;47967;51.756;10.174;2023-04-27T11:59:41;100179.28;;;11.92;38.53
62011;BME280;47967;51.756;10.174;2023-04-27T12:03:44;100174.91;;;12.94;37.23
62011;BME280;47967;51.756;10.174;2023-04-27T12:07:47;100163.91;;;13.83;35.67
62011;BME280;47967;51.756;10.174;2023-04-27T12:11:50;100154.31;;;14.39;35.66
62011;BME280;47967;51.756;10.174;2023-04-27T12:15:55;100158.66;;;14.47;35.01
62011;BME280;47967;51.756;10.174;2023-04-27T12:19:59;100151.31;;;14.54;35.55
62011;BME280;47967;51.756;10.174;2023-04-27T12:24:02;100147.03;;;14.33;34.46
62011;BME280;47967;51.756;10.174;2023-04-27T12:28:06;100152.13;;;14.16;33.90
62011;BME280;47967;51.756;10.174;2023-04-27T12:32:09;100142.25;;;14.22;34.01
62011;BME280;47967;51.756;10.174;2023-04-27T12:36:11;100137.50;;;14.17;33.04
62011;BME280;47967;51.756;10.174;2023-04-27T12:40:14;100138.44;;;14.36;35.15
62011;BME280;47967;51.756;10.174;2023-04-27T12:44:19;100138.09;;;14.19;33.52
62011;BME280;47967;51.756;10.174;2023-04-27T12:48:22;100132.22;;;14.29;35.44
62011;BME280;47967;51.756;10.174;2023-04-27T12:52:26;100121.94;;;14.83;34.92
62011;BME280;47967;51.756;10.174;2023-04-27T12:56:29;100125.84;;;14.55;35.32
62011;BME280;47967;51.756;10.174;2023-04-27T13:00:33;100119.31;;;14.18;35.31
62011;BME280;47967;51.756;10.174;2023-04-27T13:04:36;100125.88;;;13.90;35.67
62011;BME280;47967;51.756;10.174;2023-04-27T13:08:38;100127.34;;;13.99;35.47
62011;BME280;47967;51.756;10.174;2023-04-27T13:12:42;100126.81;;;13.64;35.77
62011;BME280;47967;51.756;10.174;2023-04-27T13:16:46;100134.13;;;13.56;36.16
62011;BME280;47967;51.756;10.174;2023-04-27T13:20:49;100125.59;;;14.64;36.69
62011;BME280;47967;51.756;10.174;2023-04-27T13:24:52;100123.84;;;15.08;34.83
62011;BME280;47967;51.756;10.174;2023-04-27T13:28:54;100122.78;;;15.09;35.73
62011;BME280;47967;51.756;10.174;2023-04-27T13:32:59;100125.66;;;15.14;34.79
62011;BME280;47967;51.756;10.174;2023-04-27T13:37:22;100132.59;;;15.35;34.55
62011;BME280;47967;51.756;10.174;2023-04-27T13:41:25;100132.06;;;15.01;34.49
62011;BME280;47967;51.756;10.174;2023-04-27T13:45:28;100122.88;;;14.96;34.10
62011;BME280;47967;51.756;10.174;2023-04-27T13:49:32;100118.88;;;15.05;33.83
62011;BME280;47967;51.756;10.174;2023-04-27T13:53:34;100117.50;;;15.65;34.41
62011;BME280;47967;51.756;10.174;2023-04-27T13:57:37;100117.84;;;16.43;33.56
62011;BME280;47967;51.756;10.174;2023-04-27T14:01:39;100114.41;;;16.36;33.81
62011;BME280;47967;51.756;10.174;2023-04-27T14:05:43;100102.03;;;16.52;33.87
62011;BME280;47967;51.756;10.174;2023-04-27T14:09:48;100095.53;;;16.95;32.28
62011;BME280;47967;51.756;10.174;2023-04-27T14:13:51;100102.91;;;16.33;32.85
62011;BME280;47967;51.756;10.174;2023-04-27T14:17:54;100106.66;;;15.77;33.05
62011;BME280;47967;51.756;10.174;2023-04-27T14:21:58;100101.28;;;15.95;32.07
62011;BME280;47967;51.756;10.174;2023-04-27T14:26:01;100092.69;;;16.59;32.14
62011;BME280;47967;51.756;10.174;2023-04-27T14:30:04;100095.09;;;17.22;30.66
62011;BME280;47967;51.756;10.174;2023-04-27T14:34:07;100084.00;;;18.00;28.87
62011;BME280;47967;51.756;10.174;2023-04-27T14:38:12;100084.50;;;17.85;29.73
62011;BME280;47967;51.756;10.174;2023-04-27T14:42:15;100082.63;;;17.62;30.34
62011;BME280;47967;51.756;10.174;2023-04-27T14:46:17;100077.53;;;17.65;30.50
62011;BME280;47967;51.756;10.174;2023-04-27T14:50:22;100065.84;;;18.34;30.05
62011;BME280;47967;51.756;10.174;2023-04-27T14:54:26;100065.63;;;19.16;28.77
62011;BME280;47967;51.756;10.174;2023-04-27T14:58:29;100066.66;;;19.32;28.49
62011;BME280;47967;51.756;10.174;2023-04-27T15:02:33;100063.44;;;18.67;28.53
62011;BME280;47967;51.756;10.174;2023-04-27T15:06:36;100056.50;;;18.76;28.23
62011;BME280;47967;51.756;10.174;2023-04-27T15:10:40;100056.56;;;19.32;28.33
62011;BME280;47967;51.756;10.174;2023-04-27T15:14:42;100055.81;;;18.69;27.78
62011;BME280;47967;51.756;10.174;2023-04-27T15:18:45;100053.22;;;18.62;28.42
62011;BME280;47967;51.756;10.174;2023-04-27T15:22:47;100049.25;;;18.87;27.55
62011;BME280;47967;51.756;10.174;2023-04-27T15:26:51;100047.22;;;18.31;28.42
62011;BME280;47967;51.756;10.174;2023-04-27T15:30:54;100045.25;;;19.07;28.49
62011;BME280;47967;51.756;10.174;2023-04-27T15:34:57;100048.09;;;19.73;26.77
62011;BME280;47967;51.756;10.174;2023-04-27T15:38:59;100045.63;;;19.72;27.69
62011;BME280;47967;51.756;10.174;2023-04-27T15:43:03;100055.06;;;19.42;27.32
62011;BME280;47967;51.756;10.174;2023-04-27T15:47:06;100053.06;;;19.76;26.77
62011;BME280;47967;51.756;10.174;2023-04-27T15:51:09;100046.59;;;20.05;26.36
62011;BME280;47967;51.756;10.174;2023-04-27T15:55:12;100048.88;;;20.13;27.07
62011;BME280;47967;51.756;10.174;2023-04-27T15:59:16;100039.28;;;19.71;28.24
62011;BME280;47967;51.756;10.174;2023-04-27T16:03:19;100046.63;;;19.26;28.43
62011;BME280;47967;51.756;10.174;2023-04-27T16:07:21;100043.91;;;19.65;27.22
62011;BME280;47967;51.756;10.174;2023-04-27T16:11:24;100034.94;;;19.70;27.51
62011;BME280;47967;51.756;10.174;2023-04-27T16:15:28;100025.75;;;19.81;26.86
62011;BME280;47967;51.756;10.174;2023-04-27T16:19:30;100032.03;;;19.82;28.04
62011;BME280;47967;51.756;10.174;2023-04-27T16:23:33;100018.06;;;19.39;27.22
62011;BME280;47967;51.756;10.174;2023-04-27T16:27:36;100022.25;;;18.56;28.31
62011;BME280;47967;51.756;10.174;2023-04-27T16:31:40;100022.75;;;18.53;28.39
62011;BME280;47967;51.756;10.174;2023-04-27T16:35:45;100020.94;;;18.13;27.97
62011;BME280;47967;51.756;10.174;2023-04-27T16:39:47;100009.84;;;17.91;28.47
62011;BME280;47967;51.756;10.174;2023-04-27T16:43:50;100013.28;;;17.98;28.08
62011;BME280;47967;51.756;10.174;2023-04-27T16:47:54;100018.91;;;18.37;28.63
62011;BME280;47967;51.756;10.174;2023-04-27T16:51:57;100007.94;;;18.49;29.63
62011;BME280;47967;51.756;10.174;2023-04-27T16:55:59;100006.19;;;18.60;29.33
62011;BME280;47967;51.756;10.174;2023-04-27T17:00:03;100013.28;;;17.98;29.54
62011;BME280;47967;51.756;10.174;2023-04-27T17:04:09;100010.78;;;16.85;30.56
62011;BME280;47967;51.756;10.174;2023-04-27T17:08:12;100018.53;;;15.84;32.30
62011;BME280;47967;51.756;10.174;2023-04-27T17:12:15;100022.88;;;15.30;34.52
62011;BME280;47967;51.756;10.174;2023-04-27T17:16:17;100020.69;;;14.69;34.50
62011;BME280;47967;51.756;10.174;2023-04-27T17:20:23;100017.31;;;14.42;35.34
62011;BME280;47967;51.756;10.174;2023-04-27T17:24:26;100025.06;;;14.00;36.08
62011;BME280;47967;51.756;10.174;2023-04-27T17:28:28;100019.69;;;13.93;36.87
62011;BME280;47967;51.756;10.174;2023-04-27T17:32:31;100014.56;;;13.71;36.96
62011;BME280;47967;51.756;10.174;2023-04-27T17:36:35;100002.72;;;13.52;37.16
62011;BME280;47967;51.756;10.174;2023-04-27T17:40:37;100006.94;;;13.41;38.25
62011;BME280;47967;51.756;10.174;2023-04-27T17:44:40;100006.28;;;13.46;38.85
62011;BME280;47967;51.756;10.174;2023-04-27T17:48:43;100003.41;;;13.41;38.72
62011;BME280;47967;51.756;10.174;2023-04-27T17:52:47;99994.88;;;13.31;38.69
62011;BME280;47967;51.756;10.174;2023-04-27T17:56:51;99997.59;;;13.10;39.31
62011;BME280;47967;51.756;10.174;2023-04-27T18:00:54;99995.75;;;12.77;39.53
62011;BME280;47967;51.756;10.174;2023-04-27T18:04:56;99999.09;;;12.46;40.14
62011;BME280;47967;51.756;10.174;2023-04-27T18:09:00;99994.69;;;12.45;40.87
62011;BME280;47967;51.756;10.174;2023-04-27T18:13:03;99998.03;;;12.33;41.58
62011;BME280;47967;51.756;10.174;2023-04-27T18:17:06;99993.88;;;12.24;41.49
62011;BME280;47967;51.756;10.174;2023-04-27T18:21:09;99991.97;;;12.18;41.91
62011;BME280;47967;51.756;10.174;2023-04-27T18:25:13;99993.38;;;12.00;42.09
62011;BME280;47967;51.756;10.174;2023-04-27T18:29:15;99995.47;;;12.05;43.40
62011;BME280;47967;51.756;10.174;2023-04-27T18:33:18;99996.63;;;11.82;43.85
62011;BME280;47967;51.756;10.174;2023-04-27T18:37:21;100005.25;;;11.58;45.01
62011;BME280;47967;51.756;10.174;2023-04-27T18:41:25;100008.66;;;10.96;46.70
62011;BME280;47967;51.756;10.174;2023-04-27T18:45:28;100003.19;;;10.61;47.33
62011;BME280;47967;51.756;10.174;2023-04-27T18:49:31;100010.47;;;10.39;48.27
62011;BME280;47967;51.756;10.174;2023-04-27T18:53:33;100005.03;;;10.17;48.05
62011;BME280;47967;51.756;10.174;2023-04-27T18:57:37;100000.50;;;10.03;48.60
62011;BME280;47967;51.756;10.174;2023-04-27T19:01:40;100006.66;;;9.97;48.64
62011;BME280;47967;51.756;10.174;2023-04-27T19:05:43;100019.63;;;10.08;47.98
62011;BME280;47967;51.756;10.174;2023-04-27T19:09:46;100012.41;;;10.08;48.37
62011;BME280;47967;51.756;10.174;2023-04-27T19:13:50;100016.47;;;10.04;48.21
62011;BME280;47967;51.756;10.174;2023-04-27T19:17:54;100003.81;;;9.83;51.58
62011;BME280;47967;51.756;10.174;2023-04-27T19:22:10;100009.44;;;9.52;51.63
62011;BME280;47967;51.756;10.174;2023-04-27T19:26:12;100016.31;;;9.39;50.68
62011;BME280;47967;51.756;10.174;2023-04-27T19:30:16;100018.34;;;9.07;50.89
62011;BME280;47967;51.756;10.174;2023-04-27T19:34:19;100019.06;;;8.86;51.41
62011;BME280;47967;51.756;10.174;2023-04-27T19:38:22;100002.06;;;8.71;51.82
62011;BME280;47967;51.756;10.174;2023-04-27T19:42:25;100006.41;;;8.72;53.53
62011;BME280;47967;51.756;10.174;2023-04-27T19:46:29;99997.13;;;8.59;56.82
62011;BME280;47967;51.756;10.174;2023-04-27T19:50:32;100004.22;;;8.29;57.48
62011;BME280;47967;51.756;10.174;2023-04-27T19:54:36;100011.19;;;8.15;57.85
62011;BME280;47967;51.756;10.174;2023-04-27T19:58:38;100009.72;;;8.04;56.87
62011;BME280;47967;51.756;10.174;2023-04-27T20:02:42;100001.03;;;8.02;57.54
62011;BME280;47967;51.756;10.174;2023-04-27T20:06:45;100008.94;;;7.95;57.21
62011;BME280;47967;51.756;10.174;2023-04-27T20:10:49;100013.72;;;7.85;56.94
62011;BME280;47967;51.756;10.174;2023-04-27T20:14:51;100009.53;;;7.82;58.89
62011;BME280;47967;51.756;10.174;2023-04-27T20:18:55;100011.03;;;7.85;57.31
62011;BME280;47967;51.756;10.174;2023-04-27T20:22:58;100007.19;;;7.79;57.85
62011;BME280;47967;51.756;10.174;2023-04-27T20:27:00;100005.75;;;7.68;58.95
62011;BME280;47967;51.756;10.174;2023-04-27T20:31:04;100009.16;;;7.54;60.23
62011;BME280;47967;51.756;10.174;2023-04-27T20:35:08;100010.53;;;7.50;60.66
62011;BME280;47967;51.756;10.174;2023-04-27T20:39:11;100013.25;;;7.33;61.31
62011;BME280;47967;51.756;10.174;2023-04-27T20:43:15;100006.91;;;7.26;61.25
62011;BME280;47967;51.756;10.174;2023-04-27T20:47:18;100012.50;;;7.08;61.81
62011;BME280;47967;51.756;10.174;2023-04-27T20:51:22;100013.53;;;6.99;61.53
62011;BME280;47967;51.756;10.174;2023-04-27T20:55:25;100015.72;;;6.95;61.97
62011;BME280;47967;51.756;10.174;2023-04-27T20:59:27;100012.22;;;6.70;63.10
